createdAt,value
2022-12-28T00:01:41.932Z,7.90
2022-12-28T00:04:16.110Z,7.90
2022-12-28T00:06:47.160Z,7.80
2022-12-28T00:09:17.978Z,7.80
2022-12-28T00:11:47.998Z,7.90
2022-12-28T00:14:17.991Z,7.80
2022-12-28T00:16:47.939Z,7.70
2022-12-28T00:19:23.196Z,7.80
2022-12-28T00:21:55.432Z,7.80
2022-12-28T00:24:27.599Z,7.80
2022-12-28T00:26:58.550Z,7.80
2022-12-28T00:29:31.074Z,7.90
2022-12-28T00:32:01.258Z,7.80
2022-12-28T00:34:31.314Z,7.80
2022-12-28T00:37:11.094Z,7.80
2022-12-28T00:39:44.305Z,7.70
2022-12-28T00:42:14.210Z,7.80
2022-12-28T00:44:44.139Z,7.80
2022-12-28T00:47:14.242Z,7.90
2022-12-28T00:49:44.487Z,7.80
2022-12-28T00:52:15.363Z,7.70
2022-12-28T00:54:45.115Z,7.70
2022-12-28T00:57:15.084Z,7.60
2022-12-28T00:59:45.086Z,7.60
2022-12-28T01:02:14.999Z,7.60
2022-12-28T01:04:44.987Z,7.60
2022-12-28T01:07:15.006Z,7.60
2022-12-28T01:09:44.932Z,7.70
2022-12-28T01:12:14.946Z,7.80
2022-12-28T01:14:44.949Z,7.70
2022-12-28T01:17:14.881Z,7.80
2022-12-28T01:19:50.265Z,7.80
2022-12-28T01:22:23.840Z,7.90
2022-12-28T01:24:53.717Z,8.00
2022-12-28T01:27:23.829Z,8.00
2022-12-28T01:29:53.926Z,7.90
2022-12-28T01:32:23.853Z,7.90
2022-12-28T01:34:53.729Z,7.90
2022-12-28T01:37:23.673Z,7.90
2022-12-28T01:39:53.591Z,7.90
2022-12-28T01:42:23.504Z,7.90
2022-12-28T01:44:54.679Z,8.00
2022-12-28T01:47:34.091Z,8.00
2022-12-28T01:50:11.569Z,8.00
2022-12-28T01:52:49.577Z,8.10
2022-12-28T01:55:26.711Z,8.00
2022-12-28T01:58:07.269Z,8.10
2022-12-28T02:00:38.297Z,8.10
2022-12-28T02:03:13.624Z,8.30
2022-12-28T02:05:48.373Z,8.30
2022-12-28T02:08:28.800Z,8.40
2022-12-28T02:10:59.358Z,8.40
2022-12-28T02:13:29.729Z,8.50
2022-12-28T02:15:59.775Z,8.70
2022-12-28T02:18:30.101Z,8.80
2022-12-28T02:21:32.933Z,9.00
2022-12-28T02:24:35.267Z,9.20
2022-12-28T02:27:21.009Z,9.40
2022-12-28T02:30:11.604Z,9.50
2022-12-28T02:33:05.626Z,9.70
2022-12-28T02:36:05.659Z,9.80
2022-12-28T02:38:50.675Z,9.80
2022-12-28T02:41:24.917Z,9.80
2022-12-28T02:43:56.462Z,9.80
2022-12-28T02:46:45.945Z,9.90
2022-12-28T02:49:36.060Z,9.90
2022-12-28T02:52:44.811Z,10.00
2022-12-28T02:55:56.433Z,10.20
2022-12-28T02:59:05.138Z,10.20
2022-12-28T03:02:07.643Z,10.40
2022-12-28T03:05:08.012Z,10.40
2022-12-28T03:08:07.177Z,10.50
2022-12-28T03:10:54.898Z,10.70
2022-12-28T03:13:47.525Z,10.80
2022-12-28T03:16:47.756Z,10.90
2022-12-28T03:19:27.863Z,10.90
2022-12-28T03:22:18.208Z,10.90
2022-12-28T03:25:08.149Z,10.90
2022-12-28T03:27:58.462Z,11.00
2022-12-28T03:30:38.626Z,11.10
2022-12-28T03:33:10.764Z,11.30
2022-12-28T03:35:59.407Z,11.30
2022-12-28T03:38:37.869Z,11.50
2022-12-28T03:41:16.996Z,11.50
2022-12-28T03:43:55.979Z,11.70
2022-12-28T03:46:36.513Z,11.80
2022-12-28T03:49:06.885Z,11.90
2022-12-28T03:51:37.938Z,11.90
2022-12-28T03:54:08.058Z,12.00
2022-12-28T03:56:47.144Z,12.00
2022-12-28T03:59:18.347Z,12.10
2022-12-28T04:01:48.367Z,12.20
2022-12-28T04:04:18.602Z,12.30
2022-12-28T04:06:49.430Z,12.40
2022-12-28T04:09:19.529Z,12.50
2022-12-28T04:11:49.488Z,12.60
2022-12-28T04:14:19.589Z,12.70
2022-12-28T04:16:49.450Z,12.80
2022-12-28T04:19:19.457Z,12.80
2022-12-28T04:21:49.564Z,12.90
2022-12-28T04:24:19.376Z,13.00
2022-12-28T04:26:49.399Z,13.10
2022-12-28T04:29:19.502Z,13.20
2022-12-28T04:31:49.454Z,13.40
2022-12-28T04:34:19.640Z,13.40
2022-12-28T04:36:49.690Z,13.50
2022-12-28T04:39:19.663Z,13.60
2022-12-28T04:41:49.860Z,13.60
2022-12-28T04:44:19.922Z,13.80
2022-12-28T04:46:49.897Z,13.90
2022-12-28T04:49:19.972Z,14.00
2022-12-28T04:51:49.919Z,14.10
2022-12-28T04:54:20.022Z,14.70
2022-12-28T04:56:50.040Z,14.20
2022-12-28T04:59:21.532Z,14.30
2022-12-28T05:01:51.694Z,14.40
2022-12-28T05:04:21.976Z,14.50
2022-12-28T05:06:51.959Z,14.60
2022-12-28T05:09:21.965Z,14.60
2022-12-28T05:11:52.438Z,14.60
2022-12-28T05:14:22.048Z,14.70
2022-12-28T05:16:54.734Z,14.70
2022-12-28T05:19:26.301Z,14.80
2022-12-28T05:21:56.421Z,14.90
2022-12-28T05:24:26.432Z,15.00
2022-12-28T05:26:56.464Z,15.00
2022-12-28T05:29:26.367Z,15.20
2022-12-28T05:31:56.521Z,15.20
2022-12-28T05:34:26.817Z,15.20
2022-12-28T05:36:57.083Z,15.20
2022-12-28T05:39:28.050Z,15.30
2022-12-28T05:42:01.884Z,15.30
2022-12-28T05:44:33.158Z,15.30
2022-12-28T05:47:03.237Z,15.50
2022-12-28T05:49:33.296Z,15.20
2022-12-28T05:52:03.194Z,15.60
2022-12-28T05:54:33.299Z,15.70
2022-12-28T05:57:03.259Z,15.70
2022-12-28T05:59:33.255Z,15.80
2022-12-28T06:02:03.360Z,15.80
2022-12-28T06:04:33.281Z,15.80
2022-12-28T06:07:04.269Z,15.90
2022-12-28T06:09:34.906Z,15.90
2022-12-28T06:12:06.536Z,16.00
2022-12-28T06:14:36.568Z,16.00
2022-12-28T06:17:06.669Z,16.10
2022-12-28T06:19:36.848Z,16.20
2022-12-28T06:22:08.776Z,16.20
2022-12-28T06:24:38.922Z,16.30
2022-12-28T06:27:12.435Z,16.40
2022-12-28T06:29:42.817Z,16.40
2022-12-28T06:32:12.184Z,16.50
2022-12-28T06:34:42.141Z,16.40
2022-12-28T06:37:12.356Z,16.40
2022-12-28T06:39:42.391Z,16.40
2022-12-28T06:42:12.316Z,16.40
2022-12-28T06:44:44.676Z,16.50
2022-12-28T06:47:14.992Z,16.50
2022-12-28T06:49:49.494Z,16.60
2022-12-28T06:52:19.389Z,16.70
2022-12-28T06:54:50.113Z,16.80
2022-12-28T06:57:20.071Z,16.80
2022-12-28T06:59:49.990Z,16.80
2022-12-28T07:02:21.561Z,16.80
2022-12-28T07:04:51.712Z,16.90
2022-12-28T07:07:21.741Z,16.80
2022-12-28T07:09:52.669Z,17.00
2022-12-28T07:12:22.548Z,17.00
2022-12-28T07:14:52.535Z,17.00
2022-12-28T07:17:22.490Z,17.00
2022-12-28T07:19:53.065Z,17.00
2022-12-28T07:22:23.949Z,17.00
2022-12-28T07:24:53.876Z,17.10
2022-12-28T07:27:23.859Z,17.10
2022-12-28T07:29:53.712Z,17.10
2022-12-28T07:32:23.751Z,17.10
2022-12-28T07:34:53.916Z,17.20
2022-12-28T07:37:23.778Z,17.20
2022-12-28T07:39:53.725Z,17.20
2022-12-28T07:42:24.032Z,17.30
2022-12-28T07:44:54.242Z,17.40
2022-12-28T07:47:24.653Z,17.40
2022-12-28T07:49:54.862Z,17.30
2022-12-28T07:52:24.834Z,17.30
2022-12-28T07:54:55.754Z,17.30
2022-12-28T07:57:25.910Z,17.30
2022-12-28T07:59:56.513Z,17.30
2022-12-28T08:02:26.663Z,17.30
2022-12-28T08:04:56.690Z,17.30
2022-12-28T08:07:26.682Z,17.30
2022-12-28T08:09:56.708Z,17.30
2022-12-28T08:12:26.703Z,17.30
2022-12-28T08:14:57.359Z,17.30
2022-12-28T08:17:27.400Z,17.40
2022-12-28T08:19:57.380Z,17.40
2022-12-28T08:22:27.330Z,17.40
2022-12-28T08:24:57.181Z,17.40
2022-12-28T08:27:27.210Z,17.40
2022-12-28T08:29:57.317Z,17.40
2022-12-28T08:32:27.637Z,17.40
2022-12-28T08:34:57.603Z,17.40
2022-12-28T08:37:27.814Z,17.40
2022-12-28T08:39:57.811Z,17.40
2022-12-28T08:42:27.864Z,17.40
2022-12-28T08:44:58.215Z,17.40
2022-12-28T08:47:28.123Z,17.50
2022-12-28T08:49:58.234Z,17.50
2022-12-28T08:52:29.422Z,17.40
2022-12-28T08:54:59.476Z,17.40
2022-12-28T08:57:29.615Z,17.40
2022-12-28T08:59:59.641Z,17.40
2022-12-28T09:02:29.738Z,17.40
2022-12-28T09:04:59.891Z,17.40
2022-12-28T09:07:29.946Z,17.40
2022-12-28T09:10:00.104Z,17.40
2022-12-28T09:12:30.468Z,17.40
2022-12-28T09:15:00.487Z,17.30
2022-12-28T09:17:30.622Z,17.30
2022-12-28T09:20:00.844Z,17.30
2022-12-28T09:22:32.561Z,17.30
2022-12-28T09:25:02.922Z,17.30
2022-12-28T09:27:32.472Z,17.20
2022-12-28T09:30:02.559Z,17.20
2022-12-28T09:32:32.762Z,17.10
2022-12-28T09:35:02.715Z,17.20
2022-12-28T09:37:32.740Z,17.10
2022-12-28T09:40:02.864Z,17.10
2022-12-28T09:42:33.950Z,17.00
2022-12-28T09:45:14.248Z,17.00
2022-12-28T09:47:51.586Z,17.00
2022-12-28T09:50:37.388Z,17.00
2022-12-28T09:53:31.204Z,17.00
2022-12-28T09:56:27.049Z,17.00
2022-12-28T09:58:57.644Z,16.90
2022-12-28T10:01:28.891Z,16.90
2022-12-28T10:04:02.691Z,16.90
2022-12-28T10:06:38.528Z,16.90
2022-12-28T10:09:18.404Z,16.90
2022-12-28T10:11:48.615Z,16.80
2022-12-28T10:14:37.873Z,16.80
2022-12-28T10:17:09.517Z,16.80
2022-12-28T10:19:39.477Z,16.70
2022-12-28T10:22:18.543Z,16.60
2022-12-28T10:24:49.503Z,16.70
2022-12-28T10:27:26.356Z,16.50
2022-12-28T10:29:57.125Z,16.50
2022-12-28T10:32:27.126Z,16.40
2022-12-28T10:35:00.601Z,16.40
2022-12-28T10:37:34.080Z,16.20
2022-12-28T10:40:09.281Z,16.20
2022-12-28T10:42:42.056Z,16.20
2022-12-28T10:45:24.764Z,16.10
2022-12-28T10:47:57.874Z,16.00
2022-12-28T10:50:51.507Z,16.00
2022-12-28T10:53:44.371Z,15.90
2022-12-28T10:56:32.411Z,15.80
2022-12-28T10:59:26.636Z,15.70
2022-12-28T11:01:58.933Z,15.60
2022-12-28T11:04:29.447Z,15.40
2022-12-28T11:07:02.343Z,15.30
2022-12-28T11:09:34.636Z,15.20
2022-12-28T11:12:25.656Z,15.20
2022-12-28T11:14:56.383Z,15.10
2022-12-28T11:17:33.063Z,15.00
2022-12-28T11:20:20.095Z,15.00
2022-12-28T11:22:50.687Z,14.90
2022-12-28T11:25:22.008Z,14.90
2022-12-28T11:27:52.050Z,14.90
2022-12-28T11:30:23.464Z,14.90
2022-12-28T11:32:59.167Z,14.90
2022-12-28T11:35:36.147Z,14.80
2022-12-28T11:38:08.703Z,14.70
2022-12-28T11:40:54.252Z,14.60
2022-12-28T11:43:42.231Z,14.50
2022-12-28T11:46:40.768Z,14.40
2022-12-28T11:49:28.946Z,14.30
2022-12-28T11:52:35.871Z,14.20
2022-12-28T11:55:41.843Z,14.20
2022-12-28T11:58:42.130Z,12.70
2022-12-28T12:01:14.452Z,14.10
2022-12-28T12:04:13.716Z,14.10
2022-12-28T12:07:27.453Z,14.00
2022-12-28T12:10:18.114Z,14.00
2022-12-28T12:12:54.363Z,13.90
2022-12-28T12:15:35.297Z,13.80
2022-12-28T12:18:09.401Z,13.80
2022-12-28T12:21:01.520Z,13.80
2022-12-28T12:23:42.024Z,13.80
2022-12-28T12:26:33.841Z,13.70
2022-12-28T12:29:17.610Z,13.60
2022-12-28T12:32:04.040Z,13.60
2022-12-28T12:34:47.609Z,13.50
2022-12-28T12:37:54.379Z,13.50
2022-12-28T12:40:54.448Z,13.40
2022-12-28T12:43:54.859Z,13.40
2022-12-28T12:46:49.219Z,13.40
2022-12-28T12:49:42.640Z,13.40
2022-12-28T12:52:39.250Z,13.30
2022-12-28T12:55:45.489Z,13.30
2022-12-28T12:58:32.796Z,13.30
2022-12-28T13:01:37.422Z,13.20
2022-12-28T13:04:22.464Z,13.20
2022-12-28T13:06:59.325Z,13.20
2022-12-28T13:09:32.328Z,13.20
2022-12-28T13:12:07.037Z,13.10
2022-12-28T13:14:37.666Z,13.10
2022-12-28T13:17:22.357Z,13.10
2022-12-28T13:19:52.743Z,13.10
2022-12-28T13:22:37.850Z,13.00
2022-12-28T13:25:08.102Z,13.00
2022-12-28T13:27:38.577Z,12.90
2022-12-28T13:30:22.209Z,12.90
2022-12-28T13:32:56.547Z,13.00
2022-12-28T13:35:30.768Z,12.90
2022-12-28T13:38:06.201Z,12.90
2022-12-28T13:40:36.875Z,12.90
2022-12-28T13:43:17.636Z,12.80
2022-12-28T13:45:51.033Z,12.80
2022-12-28T13:48:21.871Z,12.80
2022-12-28T13:50:54.264Z,12.80
2022-12-28T13:53:29.062Z,12.70
2022-12-28T13:56:04.788Z,12.70
2022-12-28T13:58:41.880Z,12.70
2022-12-28T14:01:20.159Z,12.60
2022-12-28T14:03:51.151Z,12.70
2022-12-28T14:06:22.808Z,12.70
2022-12-28T14:08:55.476Z,12.60
2022-12-28T14:11:26.057Z,12.60
2022-12-28T14:13:58.706Z,12.60
2022-12-28T14:16:28.995Z,12.60
2022-12-28T14:18:59.961Z,12.50
2022-12-28T14:21:47.527Z,12.50
2022-12-28T14:24:22.061Z,12.50
2022-12-28T14:26:56.128Z,12.40
2022-12-28T14:29:32.487Z,12.40
2022-12-28T14:32:05.710Z,12.40
2022-12-28T14:34:40.729Z,12.40
2022-12-28T14:37:33.990Z,12.40
2022-12-28T14:40:07.714Z,12.40
2022-12-28T14:42:37.782Z,12.40
2022-12-28T14:45:26.426Z,12.40
2022-12-28T14:48:04.325Z,12.30
2022-12-28T14:50:34.439Z,12.30
2022-12-28T14:53:22.671Z,12.30
2022-12-28T14:56:13.796Z,12.20
2022-12-28T14:58:59.926Z,12.10
2022-12-28T15:01:47.518Z,12.20
2022-12-28T15:04:42.385Z,12.20
2022-12-28T15:07:13.746Z,12.10
2022-12-28T15:09:43.870Z,12.10
2022-12-28T15:12:19.935Z,12.10
2022-12-28T15:14:50.717Z,12.00
2022-12-28T15:17:20.075Z,12.10
2022-12-28T15:19:50.100Z,12.00
2022-12-28T15:22:19.956Z,12.00
2022-12-28T15:24:50.532Z,12.00
2022-12-28T15:27:20.405Z,12.00
2022-12-28T15:30:06.561Z,11.90
2022-12-28T15:32:38.301Z,11.90
2022-12-28T15:35:08.843Z,11.90
2022-12-28T15:37:39.772Z,11.80
2022-12-28T15:40:11.136Z,11.90
2022-12-28T15:42:41.666Z,11.80
2022-12-28T15:45:15.785Z,11.90
2022-12-28T15:47:46.819Z,11.80
2022-12-28T15:50:16.697Z,11.80
2022-12-28T15:52:46.860Z,11.70
2022-12-28T15:55:17.843Z,11.70
2022-12-28T15:57:47.810Z,11.70
2022-12-28T16:00:20.760Z,11.70
2022-12-28T16:02:51.070Z,11.60
2022-12-28T16:05:21.176Z,11.60
2022-12-28T16:07:51.449Z,11.60
2022-12-28T16:10:21.352Z,11.50
2022-12-28T16:12:51.374Z,11.50
2022-12-28T16:15:21.265Z,11.50
2022-12-28T16:17:57.031Z,11.50
2022-12-28T16:20:28.238Z,11.50
2022-12-28T16:22:58.149Z,11.50
2022-12-28T16:25:28.065Z,11.40
2022-12-28T16:27:57.868Z,11.40
2022-12-28T16:30:27.877Z,11.40
2022-12-28T16:32:57.929Z,11.40
2022-12-28T16:35:28.163Z,11.40
2022-12-28T16:37:58.113Z,11.40
2022-12-28T16:40:28.402Z,11.30
2022-12-28T16:42:58.529Z,11.40
2022-12-28T16:45:29.221Z,11.30
2022-12-28T16:47:58.551Z,11.30
2022-12-28T16:50:28.547Z,11.20
2022-12-28T16:53:02.598Z,11.20
2022-12-28T16:55:35.308Z,11.20
2022-12-28T16:58:06.273Z,11.20
2022-12-28T17:00:36.318Z,11.20
2022-12-28T17:03:06.417Z,11.10
2022-12-28T17:05:38.056Z,11.20
2022-12-28T17:08:08.196Z,11.10
2022-12-28T17:10:43.678Z,11.10
2022-12-28T17:13:13.784Z,11.10
2022-12-28T17:15:44.960Z,11.00
2022-12-28T17:18:15.629Z,11.10
2022-12-28T17:20:47.857Z,11.00
2022-12-28T17:23:17.787Z,11.00
2022-12-28T17:25:53.505Z,11.00
2022-12-28T17:28:24.307Z,11.00
2022-12-28T17:30:53.528Z,11.00
2022-12-28T17:33:23.787Z,11.00
2022-12-28T17:35:58.062Z,11.00
2022-12-28T17:38:28.078Z,10.90
2022-12-28T17:40:58.168Z,10.90
2022-12-28T17:43:28.713Z,10.90
2022-12-28T17:45:59.566Z,10.90
2022-12-28T17:48:31.834Z,10.80
2022-12-28T17:51:04.365Z,10.80
2022-12-28T17:53:37.691Z,10.80
2022-12-28T17:56:10.428Z,10.70
2022-12-28T17:58:40.601Z,10.70
2022-12-28T18:01:10.922Z,10.70
2022-12-28T18:03:41.359Z,10.70
2022-12-28T18:06:11.952Z,10.80
2022-12-28T18:08:41.868Z,10.70
2022-12-28T18:11:12.925Z,10.80
2022-12-28T18:13:44.477Z,10.80
2022-12-28T18:16:18.092Z,10.70
2022-12-28T18:18:48.445Z,10.70
2022-12-28T18:21:21.941Z,10.60
2022-12-28T18:23:54.495Z,10.60
2022-12-28T18:26:28.620Z,10.70
2022-12-28T18:28:59.529Z,10.70
2022-12-28T18:31:29.728Z,10.60
2022-12-28T18:34:00.256Z,10.60
2022-12-28T18:36:30.504Z,10.60
2022-12-28T18:39:01.124Z,10.50
2022-12-28T18:41:34.269Z,10.50
2022-12-28T18:44:04.928Z,10.50
2022-12-28T18:46:34.893Z,10.60
2022-12-28T18:49:04.976Z,10.50
2022-12-28T18:51:35.062Z,10.50
2022-12-28T18:54:05.222Z,10.50
2022-12-28T18:56:35.429Z,10.50
2022-12-28T18:59:05.455Z,10.50
2022-12-28T19:02:10.731Z,10.50
2022-12-28T19:04:30.847Z,10.50
2022-12-28T19:07:00.998Z,10.50
2022-12-28T19:09:30.944Z,10.50
2022-12-28T19:12:01.680Z,10.50
2022-12-28T19:14:31.782Z,10.50
2022-12-28T19:17:01.715Z,10.40
2022-12-28T19:19:32.083Z,10.40
2022-12-28T19:22:01.998Z,10.40
2022-12-28T19:24:32.085Z,10.40
2022-12-28T19:27:02.208Z,10.40
2022-12-28T19:29:33.942Z,10.40
2022-12-28T19:32:04.070Z,10.40
2022-12-28T19:34:33.999Z,10.30
2022-12-28T19:37:04.059Z,10.30
2022-12-28T19:39:35.122Z,10.30
2022-12-28T19:42:05.034Z,10.30
2022-12-28T19:44:35.269Z,10.30
2022-12-28T19:47:06.076Z,10.20
2022-12-28T19:49:35.512Z,10.20
2022-12-28T19:52:06.188Z,10.20
2022-12-28T19:54:38.154Z,10.10
2022-12-28T19:57:09.621Z,10.10
2022-12-28T19:59:39.693Z,10.10
2022-12-28T20:02:09.821Z,10.10
2022-12-28T20:04:39.883Z,10.10
2022-12-28T20:07:09.857Z,10.00
2022-12-28T20:09:40.217Z,10.00
2022-12-28T20:12:10.216Z,9.90
2022-12-28T20:14:40.243Z,9.90
2022-12-28T20:17:10.197Z,9.90
2022-12-28T20:19:40.356Z,9.90
2022-12-28T20:22:10.333Z,10.00
2022-12-28T20:24:40.263Z,9.90
2022-12-28T20:27:10.283Z,9.90
2022-12-28T20:29:40.339Z,9.80
2022-12-28T20:32:10.250Z,9.70
2022-12-28T20:34:41.036Z,9.70
2022-12-28T20:37:10.269Z,9.60
2022-12-28T20:39:40.887Z,9.60
2022-12-28T20:42:22.959Z,9.60
2022-12-28T20:44:52.821Z,9.70
2022-12-28T20:47:22.806Z,9.60
2022-12-28T20:49:53.399Z,9.70
2022-12-28T20:52:23.310Z,9.70
2022-12-28T20:54:53.278Z,9.70
2022-12-28T20:57:23.516Z,9.60
2022-12-28T20:59:53.427Z,9.50
2022-12-28T21:02:23.471Z,9.50
2022-12-28T21:04:53.638Z,9.50
2022-12-28T21:07:23.576Z,9.40
2022-12-28T21:09:53.705Z,9.50
2022-12-28T21:12:23.507Z,9.50
2022-12-28T21:14:53.412Z,9.40
2022-12-28T21:17:23.589Z,9.40
2022-12-28T21:19:53.956Z,9.40
2022-12-28T21:22:23.878Z,9.40
2022-12-28T21:24:53.821Z,9.40
2022-12-28T21:27:23.746Z,9.30
2022-12-28T21:29:53.635Z,9.30
2022-12-28T21:32:23.704Z,9.30
2022-12-28T21:34:53.603Z,9.30
2022-12-28T21:37:36.201Z,9.40
2022-12-28T21:40:09.435Z,9.30
2022-12-28T21:42:39.621Z,9.40
2022-12-28T21:45:09.913Z,9.30
2022-12-28T21:47:40.030Z,9.30
2022-12-28T21:50:12.167Z,9.30
2022-12-28T21:52:42.156Z,9.30
2022-12-28T21:55:27.287Z,9.40
2022-12-28T21:57:59.546Z,9.30
2022-12-28T22:00:47.585Z,9.30
2022-12-28T22:03:27.688Z,9.30
2022-12-28T22:06:04.906Z,9.30
2022-12-28T22:08:47.953Z,9.20
2022-12-28T22:11:38.763Z,9.20
2022-12-28T22:14:09.777Z,9.20
2022-12-28T22:16:40.462Z,9.20
2022-12-28T22:19:10.409Z,9.10
2022-12-28T22:21:40.383Z,9.10
2022-12-28T22:24:10.608Z,9.10
2022-12-28T22:26:40.560Z,9.10
2022-12-28T22:29:10.634Z,9.00
2022-12-28T22:31:41.459Z,9.00
2022-12-28T22:34:10.765Z,9.00
2022-12-28T22:36:40.661Z,9.00
2022-12-28T22:39:10.687Z,9.00
2022-12-28T22:41:40.596Z,8.90
2022-12-28T22:44:13.011Z,8.90
2022-12-28T22:46:42.889Z,8.90
2022-12-28T22:49:12.938Z,8.90
2022-12-28T22:51:43.086Z,8.80
2022-12-28T22:54:13.097Z,8.80
2022-12-28T22:56:42.965Z,8.80
2022-12-28T22:59:15.824Z,8.80
2022-12-28T23:01:46.606Z,8.70
2022-12-28T23:04:17.830Z,8.70
2022-12-28T23:06:47.766Z,8.70
2022-12-28T23:09:17.681Z,8.70
2022-12-28T23:11:50.959Z,8.70
2022-12-28T23:14:44.709Z,8.70
2022-12-28T23:17:17.055Z,8.70
2022-12-28T23:20:02.248Z,8.70
2022-12-28T23:22:52.485Z,8.70
2022-12-28T23:25:42.576Z,8.70
2022-12-28T23:28:16.304Z,8.70
2022-12-28T23:30:49.999Z,8.70
2022-12-28T23:33:21.174Z,8.80
2022-12-28T23:35:51.154Z,8.60
2022-12-28T23:38:21.131Z,8.70
2022-12-28T23:41:10.474Z,8.60
2022-12-28T23:43:40.435Z,8.60
2022-12-28T23:46:10.396Z,8.60
2022-12-28T23:48:40.389Z,8.60
2022-12-28T23:51:10.392Z,8.50
2022-12-28T23:53:40.301Z,8.50
2022-12-28T23:56:10.769Z,8.50
2022-12-28T23:58:40.643Z,8.50
